createdAt,value
2024-03-03T00:00:36.797Z,19.83
2024-03-03T00:03:22.510Z,21.25
2024-03-03T00:06:09.127Z,18.35
2024-03-03T00:08:57.385Z,20.95
2024-03-03T00:11:43.205Z,18.65
2024-03-03T00:14:28.791Z,21.30
2024-03-03T00:17:15.191Z,20.30
2024-03-03T00:20:01.120Z,21.77
2024-03-03T00:22:46.873Z,21.80
2024-03-03T00:25:32.836Z,23.55
2024-03-03T00:28:18.482Z,21.38
2024-03-03T00:31:04.258Z,19.92
2024-03-03T00:33:50.055Z,20.88
2024-03-03T00:36:35.977Z,22.73
2024-03-03T00:39:22.911Z,22.55
2024-03-03T00:42:08.457Z,21.17
2024-03-03T00:44:53.855Z,22.35
2024-03-03T00:47:39.601Z,20.73
2024-03-03T00:50:25.179Z,23.23
2024-03-03T00:53:10.714Z,20.75
2024-03-03T00:55:56.428Z,20.60
2024-03-03T00:58:42.856Z,25.38
2024-03-03T01:01:28.763Z,21.13
2024-03-03T01:04:14.495Z,20.15
2024-03-03T01:07:00.170Z,22.13
2024-03-03T01:09:45.637Z,23.08
2024-03-03T01:12:31.811Z,21.10
2024-03-03T01:15:18.227Z,20.90
2024-03-03T01:18:03.945Z,21.02
2024-03-03T01:20:49.611Z,24.17
2024-03-03T01:23:36.327Z,23.83
2024-03-03T01:26:22.472Z,23.60
2024-03-03T01:29:08.295Z,22.48
2024-03-03T01:31:54.109Z,20.85
2024-03-03T01:34:39.822Z,18.35
2024-03-03T01:37:25.593Z,20.00
2024-03-03T01:40:14.003Z,20.38
2024-03-03T01:42:59.822Z,18.88
2024-03-03T01:45:45.674Z,21.23
2024-03-03T01:48:31.532Z,20.50
2024-03-03T01:51:18.073Z,22.02
2024-03-03T01:54:05.495Z,22.38
2024-03-03T01:56:51.323Z,20.35
2024-03-03T01:59:38.118Z,20.58
2024-03-03T02:02:24.683Z,22.65
2024-03-03T02:05:13.357Z,21.55
2024-03-03T02:07:59.240Z,20.92
2024-03-03T02:10:45.623Z,19.33
2024-03-03T02:13:31.568Z,20.73
2024-03-03T02:16:17.740Z,19.63
2024-03-03T02:19:03.738Z,17.95
2024-03-03T02:21:49.152Z,23.38
2024-03-03T02:24:34.978Z,23.33
2024-03-03T02:27:20.742Z,22.73
2024-03-03T02:30:07.999Z,18.67
2024-03-03T02:32:53.768Z,21.60
2024-03-03T02:35:39.731Z,23.05
2024-03-03T02:38:25.486Z,19.48
2024-03-03T02:41:11.340Z,18.05
2024-03-03T02:43:56.697Z,17.15
2024-03-03T02:46:42.348Z,15.82
2024-03-03T02:49:27.887Z,21.17
2024-03-03T02:52:13.856Z,19.80
2024-03-03T02:54:59.695Z,20.98
2024-03-03T02:57:45.453Z,21.90
2024-03-03T03:00:33.437Z,17.92
2024-03-03T03:03:19.085Z,20.90
2024-03-03T03:06:08.650Z,18.65
2024-03-03T03:08:54.307Z,18.77
2024-03-03T03:11:39.885Z,19.02
2024-03-03T03:14:25.927Z,20.38
2024-03-03T03:17:12.010Z,22.73
2024-03-03T03:19:57.621Z,20.58
2024-03-03T03:22:43.585Z,22.85
2024-03-03T03:25:29.534Z,21.55
2024-03-03T03:28:15.167Z,19.73
2024-03-03T03:31:00.671Z,21.98
2024-03-03T03:33:46.399Z,19.20
2024-03-03T03:36:32.549Z,22.50
2024-03-03T03:39:18.150Z,23.33
2024-03-03T03:42:04.030Z,20.52
2024-03-03T03:44:49.818Z,21.40
2024-03-03T03:47:35.460Z,23.55
2024-03-03T03:50:21.271Z,24.40
2024-03-03T03:53:07.117Z,26.17
2024-03-03T03:55:52.527Z,26.40
2024-03-03T03:58:38.437Z,26.08
2024-03-03T04:01:24.055Z,27.50
2024-03-03T04:04:11.476Z,25.33
2024-03-03T04:06:56.989Z,26.73
2024-03-03T04:09:42.567Z,29.25
2024-03-03T04:12:28.204Z,22.73
2024-03-03T04:15:15.935Z,23.15
2024-03-03T04:18:01.708Z,27.83
2024-03-03T04:20:47.669Z,29.63
2024-03-03T04:23:34.127Z,24.40
2024-03-03T04:26:20.104Z,23.33
2024-03-03T04:29:05.710Z,27.35
2024-03-03T04:31:52.463Z,27.55
2024-03-03T04:34:41.066Z,25.90
2024-03-03T04:37:27.115Z,29.25
2024-03-03T04:40:13.102Z,30.48
2024-03-03T04:42:58.850Z,25.65
2024-03-03T04:45:44.646Z,27.40
2024-03-03T04:48:30.160Z,25.90
2024-03-03T04:51:15.893Z,25.60
2024-03-03T04:54:01.696Z,27.50
2024-03-03T04:56:47.228Z,28.48
2024-03-03T04:59:32.836Z,23.92
2024-03-03T05:02:19.943Z,24.35
2024-03-03T05:05:07.261Z,25.75
2024-03-03T05:07:53.206Z,23.35
2024-03-03T05:10:39.951Z,24.63
2024-03-03T05:13:26.306Z,24.70
2024-03-03T05:16:13.259Z,25.08
2024-03-03T05:18:59.318Z,22.23
2024-03-03T05:21:44.981Z,22.30
2024-03-03T05:24:31.132Z,33.25
2024-03-03T05:27:16.781Z,27.63
2024-03-03T05:30:02.331Z,27.65
2024-03-03T05:32:48.106Z,26.63
2024-03-03T05:35:33.580Z,29.75
2024-03-03T05:38:19.545Z,26.77
2024-03-03T05:41:05.031Z,25.73
2024-03-03T05:43:50.631Z,29.25
2024-03-03T05:46:38.500Z,30.95
2024-03-03T05:49:24.555Z,30.85
2024-03-03T05:52:10.698Z,29.23
2024-03-03T05:54:56.723Z,26.15
2024-03-03T05:57:42.450Z,23.77
2024-03-03T06:00:28.001Z,27.02
2024-03-03T06:03:13.774Z,26.60
2024-03-03T06:05:59.255Z,25.45
2024-03-03T06:08:46.684Z,24.77
2024-03-03T06:11:32.494Z,17.45
2024-03-03T06:14:17.871Z,13.45
2024-03-03T06:17:04.157Z,21.63
2024-03-03T06:19:50.025Z,17.88
2024-03-03T06:22:35.828Z,18.02
2024-03-03T06:25:21.762Z,17.13
2024-03-03T06:28:07.474Z,17.30
2024-03-03T06:30:54.697Z,21.08
2024-03-03T06:33:40.551Z,22.70
2024-03-03T06:36:26.511Z,22.30
2024-03-03T06:39:14.156Z,25.25
2024-03-03T06:42:00.232Z,18.95
2024-03-03T06:44:46.213Z,25.08
2024-03-03T06:47:33.505Z,27.75
2024-03-03T06:50:19.046Z,21.77
2024-03-03T06:53:05.573Z,23.17
2024-03-03T06:55:51.473Z,21.50
2024-03-03T06:58:37.155Z,26.65
2024-03-03T07:01:23.128Z,26.77
2024-03-03T07:04:25.702Z,26.27
2024-03-03T07:07:11.747Z,22.50
2024-03-03T07:09:57.375Z,29.90
2024-03-03T07:12:42.706Z,29.02
2024-03-03T07:15:28.126Z,25.23
2024-03-03T07:18:13.808Z,32.92
2024-03-03T07:20:59.749Z,38.63
2024-03-03T07:23:45.426Z,40.53
2024-03-03T07:26:32.111Z,33.03
2024-03-03T07:29:17.994Z,38.55
2024-03-03T07:32:04.045Z,35.25
2024-03-03T07:34:51.112Z,38.85
2024-03-03T07:37:38.968Z,35.33
2024-03-03T07:40:24.885Z,42.33
2024-03-03T07:43:10.701Z,30.77
2024-03-03T07:45:56.797Z,31.25
2024-03-03T07:48:43.225Z,36.13
2024-03-03T07:51:28.864Z,37.50
2024-03-03T07:54:14.594Z,35.90
2024-03-03T07:57:00.554Z,35.85
2024-03-03T07:59:46.414Z,37.20
2024-03-03T08:02:32.522Z,31.15
2024-03-03T08:05:18.110Z,33.78
2024-03-03T08:08:05.661Z,33.80
2024-03-03T08:10:51.510Z,33.30
2024-03-03T08:13:41.845Z,30.73
2024-03-03T08:16:27.169Z,28.95
2024-03-03T08:19:13.008Z,27.98
2024-03-03T08:21:58.809Z,28.08
2024-03-03T08:24:44.322Z,33.70
2024-03-03T08:27:30.158Z,28.65
2024-03-03T08:30:15.692Z,27.88
2024-03-03T08:33:01.591Z,27.48
2024-03-03T08:35:48.256Z,25.98
2024-03-03T08:38:35.402Z,24.23
2024-03-03T08:41:21.239Z,43.30
2024-03-03T08:44:07.732Z,59.17
2024-03-03T08:46:53.833Z,27.13
2024-03-03T08:49:39.543Z,26.02
2024-03-03T08:52:25.487Z,24.27
2024-03-03T08:55:12.106Z,21.45
2024-03-03T08:57:57.712Z,20.25
2024-03-03T09:00:43.887Z,19.63
2024-03-03T09:03:29.753Z,19.42
2024-03-03T09:06:16.666Z,18.92
2024-03-03T09:09:03.048Z,19.10
2024-03-03T09:11:49.013Z,19.65
2024-03-03T09:14:34.759Z,17.48
2024-03-03T09:17:20.831Z,15.70
2024-03-03T09:20:07.402Z,24.63
2024-03-03T09:22:53.084Z,15.85
2024-03-03T09:25:42.658Z,14.85
2024-03-03T09:28:29.964Z,13.55
2024-03-03T09:31:17.382Z,13.63
2024-03-03T09:34:04.109Z,17.70
2024-03-03T09:36:50.813Z,17.88
2024-03-03T09:39:37.758Z,15.35
2024-03-03T09:42:23.417Z,15.70
2024-03-03T09:45:14.125Z,16.98
2024-03-03T09:48:03.167Z,17.70
2024-03-03T09:50:53.505Z,11.95
2024-03-03T09:53:42.782Z,13.13
2024-03-03T09:56:32.852Z,12.70
2024-03-03T09:59:19.087Z,11.43
2024-03-03T10:02:09.374Z,10.40
2024-03-03T10:04:59.063Z,10.60
2024-03-03T10:07:54.493Z,10.95
2024-03-03T10:10:47.803Z,10.82
2024-03-03T10:13:34.401Z,11.45
2024-03-03T10:16:20.765Z,9.45
2024-03-03T10:19:07.194Z,8.55
2024-03-03T10:21:57.617Z,10.32
2024-03-03T10:24:43.527Z,9.00
2024-03-03T10:27:29.329Z,10.18
2024-03-03T10:30:21.737Z,11.45
2024-03-03T10:33:09.080Z,9.52
2024-03-03T10:36:09.211Z,12.07
2024-03-03T10:38:56.885Z,9.57
2024-03-03T10:41:42.973Z,7.97
2024-03-03T10:44:30.932Z,9.48
2024-03-03T10:47:16.551Z,9.30
2024-03-03T10:50:03.256Z,8.57
2024-03-03T10:52:53.827Z,11.65
2024-03-03T10:55:43.019Z,8.48
2024-03-03T10:58:31.823Z,9.98
2024-03-03T11:01:18.609Z,9.05
2024-03-03T11:04:08.409Z,11.82
2024-03-03T11:06:54.513Z,9.57
2024-03-03T11:09:40.709Z,9.55
2024-03-03T11:12:29.426Z,10.00
2024-03-03T11:15:21.320Z,9.15
2024-03-03T11:18:14.430Z,8.65
2024-03-03T11:21:09.760Z,8.50
2024-03-03T11:24:07.653Z,9.15
2024-03-03T11:27:00.244Z,8.00
2024-03-03T11:29:50.245Z,9.20
2024-03-03T11:32:38.026Z,8.00
2024-03-03T11:35:24.400Z,8.23
2024-03-03T11:38:10.282Z,7.63
2024-03-03T11:40:56.112Z,6.55
2024-03-03T11:43:44.165Z,8.05
2024-03-03T11:46:52.075Z,8.60
2024-03-03T11:49:43.114Z,10.13
2024-03-03T11:52:43.047Z,7.60
2024-03-03T11:55:32.713Z,22.77
2024-03-03T11:58:19.543Z,7.25
2024-03-03T12:01:12.096Z,6.32
2024-03-03T12:03:58.843Z,12.20
2024-03-03T12:06:47.711Z,8.85
2024-03-03T12:09:34.934Z,8.05
2024-03-03T12:12:21.301Z,6.35
2024-03-03T12:15:09.739Z,6.28
2024-03-03T12:18:02.629Z,7.18
2024-03-03T12:23:34.603Z,6.55
2024-03-03T12:26:21.967Z,8.48
2024-03-03T12:29:09.188Z,6.50
2024-03-03T12:31:54.939Z,6.63
2024-03-03T12:34:41.035Z,6.15
2024-03-03T12:37:27.753Z,7.18
2024-03-03T12:40:16.676Z,7.18
2024-03-03T12:43:04.609Z,9.05
2024-03-03T12:45:50.691Z,14.32
2024-03-03T12:48:36.660Z,7.57
2024-03-03T12:51:22.695Z,6.72
2024-03-03T12:54:08.215Z,5.32
2024-03-03T12:56:54.074Z,5.68
2024-03-03T12:59:40.750Z,6.15
2024-03-03T13:02:27.309Z,15.82
2024-03-03T13:05:18.473Z,6.55
2024-03-03T13:08:05.553Z,6.07
2024-03-03T13:10:52.808Z,6.43
2024-03-03T13:13:40.950Z,11.27
2024-03-03T13:16:27.412Z,7.45
2024-03-03T13:19:16.138Z,23.08
2024-03-03T13:22:05.310Z,6.72
2024-03-03T13:24:54.877Z,6.45
2024-03-03T13:27:41.076Z,5.35
2024-03-03T13:30:26.999Z,7.32
2024-03-03T13:33:12.969Z,5.60
2024-03-03T13:36:07.654Z,5.82
2024-03-03T13:38:53.647Z,4.72
2024-03-03T13:41:40.253Z,6.40
2024-03-03T13:44:26.042Z,8.80
2024-03-03T13:47:14.893Z,6.03
2024-03-03T13:50:01.146Z,6.57
2024-03-03T13:52:47.255Z,4.90
2024-03-03T13:55:33.704Z,3.92
2024-03-03T13:58:20.002Z,5.10
2024-03-03T14:01:12.892Z,12.98
2024-03-03T14:04:01.542Z,4.90
2024-03-03T14:06:47.277Z,5.03
2024-03-03T14:09:33.949Z,5.45
2024-03-03T14:12:21.747Z,5.40
2024-03-03T14:15:08.970Z,7.43
2024-03-03T14:17:55.268Z,5.40
2024-03-03T14:20:41.315Z,7.65
2024-03-03T14:23:27.170Z,6.47
2024-03-03T14:26:12.676Z,12.05
2024-03-03T14:28:59.083Z,5.88
2024-03-03T14:31:44.348Z,8.02
2024-03-03T14:34:31.401Z,5.45
2024-03-03T14:37:17.638Z,4.90
2024-03-03T14:40:06.001Z,4.53
2024-03-03T14:42:51.841Z,8.25
2024-03-03T14:45:38.570Z,7.85
2024-03-03T14:48:24.527Z,6.18
2024-03-03T14:51:10.426Z,5.65
2024-03-03T14:53:56.613Z,5.78
2024-03-03T14:56:42.852Z,7.63
2024-03-03T14:59:29.027Z,6.43
2024-03-03T15:02:18.490Z,5.82
2024-03-03T15:05:05.534Z,5.82
2024-03-03T15:07:52.984Z,5.47
2024-03-03T15:10:38.846Z,5.65
2024-03-03T15:13:25.754Z,5.28
2024-03-03T15:16:12.923Z,6.07
2024-03-03T15:18:59.142Z,6.85
2024-03-03T15:21:44.917Z,6.72
2024-03-03T15:24:31.018Z,5.68
2024-03-03T15:27:17.015Z,5.35
2024-03-03T15:30:02.943Z,8.07
2024-03-03T15:32:51.670Z,8.27
2024-03-03T15:35:37.994Z,37.00
2024-03-03T15:38:23.624Z,7.05
2024-03-03T15:41:09.602Z,7.45
2024-03-03T15:43:55.204Z,7.00
2024-03-03T15:46:40.950Z,5.53
2024-03-03T15:49:26.794Z,7.60
2024-03-03T15:52:12.692Z,8.13
2024-03-03T15:55:02.572Z,5.80
2024-03-03T15:57:49.043Z,6.40
2024-03-03T16:00:34.654Z,4.75
2024-03-03T16:03:21.861Z,5.43
2024-03-03T16:06:08.707Z,4.63
2024-03-03T16:08:54.234Z,5.03
2024-03-03T16:11:39.700Z,13.82
2024-03-03T16:14:25.069Z,10.10
2024-03-03T16:17:11.245Z,9.85
2024-03-03T16:19:56.845Z,5.10
2024-03-03T16:22:44.687Z,5.22
2024-03-03T16:25:30.813Z,6.90
2024-03-03T16:28:17.528Z,8.52
2024-03-03T16:31:04.403Z,8.73
2024-03-03T16:33:50.347Z,9.57
2024-03-03T16:36:36.643Z,5.85
2024-03-03T16:39:22.384Z,7.15
2024-03-03T16:42:09.302Z,33.65
2024-03-03T16:44:55.066Z,8.90
2024-03-03T16:47:40.804Z,5.55
2024-03-03T16:50:27.871Z,4.30
2024-03-03T16:53:13.551Z,7.50
2024-03-03T16:56:01.914Z,8.80
2024-03-03T16:58:48.932Z,7.45
2024-03-03T17:01:34.841Z,7.88
2024-03-03T17:04:20.639Z,5.68
2024-03-03T17:07:06.972Z,6.55
2024-03-03T17:09:55.017Z,8.05
2024-03-03T17:12:41.250Z,9.15
2024-03-03T17:15:27.213Z,12.35
2024-03-03T17:18:13.324Z,6.78
2024-03-03T17:20:59.062Z,11.25
2024-03-03T17:23:45.028Z,7.90
2024-03-03T17:26:31.890Z,9.43
2024-03-03T17:29:17.826Z,8.80
2024-03-03T17:32:05.377Z,8.25
2024-03-03T17:34:51.026Z,7.63
2024-03-03T17:37:37.127Z,8.30
2024-03-03T17:40:23.032Z,13.32
2024-03-03T17:43:08.559Z,16.73
2024-03-03T17:45:54.481Z,11.38
2024-03-03T17:48:40.092Z,9.57
2024-03-03T17:51:25.555Z,9.15
2024-03-03T17:54:11.647Z,10.05
2024-03-03T17:56:57.608Z,10.57
2024-03-03T17:59:46.038Z,13.75
2024-03-03T18:02:32.100Z,12.77
2024-03-03T18:05:17.687Z,10.00
2024-03-03T18:08:06.116Z,11.10
2024-03-03T18:10:51.987Z,13.25
2024-03-03T18:13:38.292Z,13.70
2024-03-03T18:16:24.232Z,12.75
2024-03-03T18:19:09.987Z,11.88
2024-03-03T18:21:56.189Z,12.98
2024-03-03T18:24:42.559Z,13.55
2024-03-03T18:27:28.524Z,12.93
2024-03-03T18:30:15.311Z,13.43
2024-03-03T18:33:01.106Z,12.07
2024-03-03T18:35:47.639Z,13.13
2024-03-03T18:38:33.825Z,13.57
2024-03-03T18:41:19.806Z,13.88
2024-03-03T18:44:05.370Z,15.48
2024-03-03T18:46:52.221Z,13.95
2024-03-03T18:49:38.229Z,15.68
2024-03-03T18:52:24.916Z,13.52
2024-03-03T18:55:11.029Z,15.23
2024-03-03T18:57:56.650Z,14.68
2024-03-03T19:00:43.260Z,23.92
2024-03-03T19:03:29.992Z,19.23
2024-03-03T19:06:15.700Z,20.17
2024-03-03T19:09:02.462Z,16.35
2024-03-03T19:11:48.212Z,14.80
2024-03-03T19:14:34.297Z,19.95
2024-03-03T19:17:20.566Z,15.15
2024-03-03T19:20:10.756Z,16.52
2024-03-03T19:22:59.917Z,15.43
2024-03-03T19:25:46.347Z,14.95
2024-03-03T19:28:32.408Z,16.63
2024-03-03T19:31:18.777Z,16.15
2024-03-03T19:34:06.580Z,15.70
2024-03-03T19:36:52.289Z,17.02
2024-03-03T19:39:37.895Z,18.15
2024-03-03T19:42:27.985Z,17.33
2024-03-03T19:45:13.744Z,17.70
2024-03-03T19:47:59.975Z,16.17
2024-03-03T19:50:46.076Z,17.52
2024-03-03T19:53:31.785Z,16.13
2024-03-03T19:56:18.050Z,18.77
2024-03-03T19:59:04.525Z,17.13
2024-03-03T20:01:50.739Z,15.27
2024-03-03T20:04:36.989Z,15.85
2024-03-03T20:07:22.277Z,15.35
2024-03-03T20:10:11.233Z,15.75
2024-03-03T20:12:57.389Z,19.30
2024-03-03T20:15:46.645Z,22.27
2024-03-03T20:18:32.575Z,20.15
2024-03-03T20:21:18.687Z,15.88
2024-03-03T20:24:04.897Z,16.17
2024-03-03T20:26:50.467Z,17.35
2024-03-03T20:29:36.947Z,16.13
2024-03-03T20:32:22.575Z,18.25
2024-03-03T20:35:08.648Z,20.20
2024-03-03T20:37:54.424Z,19.60
2024-03-03T20:40:40.093Z,18.10
2024-03-03T20:43:27.214Z,16.60
2024-03-03T20:46:13.055Z,18.00
2024-03-03T20:48:59.128Z,19.60
2024-03-03T20:51:44.832Z,17.77
2024-03-03T20:54:31.724Z,20.95
2024-03-03T20:57:17.636Z,20.35
2024-03-03T21:00:08.079Z,17.10
2024-03-03T21:02:55.410Z,19.88
2024-03-03T21:05:41.559Z,17.35
2024-03-03T21:08:27.570Z,16.73
2024-03-03T21:11:13.471Z,20.33
2024-03-03T21:13:59.234Z,19.42
2024-03-03T21:16:44.993Z,17.95
2024-03-03T21:19:31.023Z,17.33
2024-03-03T21:22:19.673Z,15.32
2024-03-03T21:25:05.969Z,17.95
2024-03-03T21:27:52.478Z,14.90
2024-03-03T21:30:38.505Z,14.75
2024-03-03T21:33:24.388Z,16.33
2024-03-03T21:36:12.624Z,16.33
2024-03-03T21:38:58.696Z,16.90
2024-03-03T21:41:44.380Z,15.80
2024-03-03T21:44:30.980Z,16.98
2024-03-03T21:47:19.064Z,17.77
2024-03-03T21:50:05.549Z,17.45
2024-03-03T21:52:51.289Z,20.00
2024-03-03T21:55:37.566Z,17.42
2024-03-03T21:58:23.797Z,19.08
2024-03-03T22:01:10.207Z,19.27
2024-03-03T22:03:56.119Z,21.23
2024-03-03T22:06:41.722Z,16.73
2024-03-03T22:09:27.531Z,17.58
2024-03-03T22:12:13.220Z,16.50
2024-03-03T22:14:59.089Z,18.88
2024-03-03T22:17:44.845Z,18.45
2024-03-03T22:20:30.349Z,17.67
2024-03-03T22:23:16.988Z,16.10
2024-03-03T22:26:03.029Z,17.90
2024-03-03T22:28:48.672Z,17.63
2024-03-03T22:31:34.625Z,17.98
2024-03-03T22:34:20.128Z,15.93
2024-03-03T22:37:07.139Z,16.60
2024-03-03T22:39:55.384Z,16.40
2024-03-03T22:42:40.917Z,18.65
2024-03-03T22:45:26.609Z,18.00
2024-03-03T22:48:12.101Z,20.17
2024-03-03T22:50:57.623Z,17.05
2024-03-03T22:53:43.481Z,19.70
2024-03-03T22:56:29.362Z,19.25
2024-03-03T22:59:15.028Z,17.63
2024-03-03T23:02:00.525Z,18.17
2024-03-03T23:04:49.255Z,18.42
2024-03-03T23:07:36.738Z,17.33
2024-03-03T23:10:22.352Z,14.88
2024-03-03T23:13:09.092Z,24.58
2024-03-03T23:15:55.270Z,21.20
2024-03-03T23:18:41.112Z,18.02
2024-03-03T23:21:26.472Z,18.95
2024-03-03T23:24:12.200Z,18.98
2024-03-03T23:26:58.695Z,18.95
2024-03-03T23:29:45.041Z,17.95
2024-03-03T23:32:30.983Z,18.52
2024-03-03T23:35:16.702Z,17.92
2024-03-03T23:38:02.461Z,18.27
2024-03-03T23:40:49.088Z,19.40
2024-03-03T23:43:35.687Z,20.70
2024-03-03T23:46:21.464Z,21.23
2024-03-03T23:49:07.624Z,24.80
2024-03-03T23:51:53.737Z,19.90
2024-03-03T23:54:39.432Z,21.20
2024-03-03T23:57:25.125Z,19.70
